Terminal Aerodrome Forecast
Issued by NWS Sioux Falls, SD

Home | Current Version | Previous Version | Graphics & Text | Print | Product List | Glossary On
Versions: 1 2 3 4 5 6 7 8 9 10 11 12 13 14 15
000
FTUS43 KFSD 021139
TAFFSD
TAF
KFSD 021139Z 0212/0312 VRB03KT P6SM SCT250
     FM021500 15008KT P6SM BKN200
     FM021800 16013G18KT P6SM BKN120
     FM022100 17016G24KT P6SM SCT040 BKN080
     FM030400 17014G22KT P6SM SCT025 BKN040
     FM030700 17013KT 3SM -SN OVC015
     FM031000 20008KT 2SM -SN OVC012=

USA.gov is the U.S. government's official web portal to all federal, state and local government web resources and services.